Time;durP1;ratioP1;P1;durP2;ratioP2;P2;SDS_P1;SDS_P2;PMS_P1;PMS_P2;Temp;Humidity;BMP_temperature;BMP_pressure;BME280_temperature;BME280_humidity;BME280_pressure;Samples;Min_cycle;Max_cycle;Signal;HPM_P1;HPM_P2
2022/08/02 00:01:41;;;;;;;;;23.00;22.80;;;;;;;;5254632;28;8781;-73
2022/08/02 00:04:12;;;;;;;;;21.20;21.20;;;;;;;;5268777;28;8950;-73
2022/08/02 00:06:43;;;;;;;;;22.25;22.25;;;;;;;;5245397;28;8929;-73
2022/08/02 00:09:15;;;;;;;;;65.80;53.40;;;;;;;;5212911;28;10851;-73
2022/08/02 00:11:46;;;;;;;;;23.60;23.60;;;;;;;;5229347;28;8834;-73
2022/08/02 00:14:17;;;;;;;;;20.00;20.00;;;;;;;;5229629;28;8795;-72
2022/08/02 00:16:48;;;;;;;;;56.00;46.60;;;;;;;;5212872;28;8880;-72
2022/08/02 00:19:19;;;;;;;;;19.20;18.80;;;;;;;;5245922;28;8787;-73
2022/08/02 00:21:50;;;;;;;;;17.25;17.25;;;;;;;;5244667;28;8827;-73
2022/08/02 00:24:21;;;;;;;;;16.60;16.60;;;;;;;;5246916;28;8775;-74
2022/08/02 00:26:52;;;;;;;;;25.40;25.40;;;;;;;;5245945;28;8904;-73
2022/08/02 00:29:41;;;;;;;;;116.00;113.50;;;;;;;;5247030;28;8787;-73
2022/08/02 00:32:31;;;;;;;;;47.40;40.80;;;;;;;;5246384;28;8787;-73
2022/08/02 00:35:02;;;;;;;;;43.00;37.80;;;;;;;;5245980;28;9497;-73
2022/08/02 00:37:37;;;;;;;;;21.20;21.20;;;;;;;;5229264;28;8787;-74
2022/08/02 00:40:09;;;;;;;;;54.00;45.60;;;;;;;;5228932;28;8836;-74
2022/08/02 00:42:43;;;;;;;;;17.00;17.00;;;;;;;;5229166;28;8815;-74
2022/08/02 00:45:13;;;;;;;;;26.80;26.80;;;;;;;;5212374;28;8873;-75
2022/08/02 00:47:44;;;;;;;;;23.80;23.00;;;;;;;;5242937;28;8772;-72
2022/08/02 00:50:15;;;;;;;;;52.20;43.60;;;;;;;;5254901;28;8813;-72
2022/08/02 00:53:05;;;;;;;;;21.40;21.40;;;;;;;;5266339;28;8787;-72
2022/08/02 00:55:36;;;;;;;;;41.00;36.20;;;;;;;;5232871;28;8776;-72
2022/08/02 00:58:08;;;;;;;;;18.00;18.00;;;;;;;;5266448;28;8993;-72
2022/08/02 01:00:39;;;;;;;;;10.75;10.75;;;;;;;;5233008;28;8822;-72
2022/08/02 01:03:10;;;;;;;;;27.80;27.60;;;;;;;;5267543;28;8777;-72
2022/08/02 01:05:42;;;;;;;;;13.00;13.00;;;;;;;;5227870;28;8830;-72
2022/08/02 01:08:15;;;;;;;;;10.75;10.75;;;;;;;;5245101;28;9171;-72
2022/08/02 01:10:46;;;;;;;;;72.40;62.80;;;;;;;;5241124;28;8823;-72
2022/08/02 01:13:17;;;;;;;;;13.25;13.25;;;;;;;;5228477;28;8857;-72
2022/08/02 01:15:52;;;;;;;;;17.25;17.25;;;;;;;;5246323;28;8792;-73
2022/08/02 01:18:46;;;;;;;;;15.00;15.00;;;;;;;;5260285;28;9506;-72
2022/08/02 01:21:17;;;;;;;;;39.40;35.80;;;;;;;;5246111;28;8819;-71
2022/08/02 01:24:20;;;;;;;;;124.33;120.67;;;;;;;;5248987;28;8817;-72
2022/08/02 01:26:59;;;;;;;;;16.00;16.00;;;;;;;;5249102;28;9237;-71
2022/08/02 01:29:52;;;;;;;;;28.40;28.40;;;;;;;;5252475;28;8806;-71
2022/08/02 01:32:27;;;;;;;;;45.20;38.60;;;;;;;;5232153;28;9562;-71
2022/08/02 01:35:18;;;;;;;;;43.20;37.40;;;;;;;;5266525;28;8778;-71
2022/08/02 01:37:57;;;;;;;;;21.50;21.50;;;;;;;;5267325;28;8777;-72
2022/08/02 01:40:30;;;;;;;;;29.00;28.40;;;;;;;;5249160;28;9520;-71
2022/08/02 01:43:20;;;;;;;;;43.20;38.20;;;;;;;;5267926;28;8798;-72
2022/08/02 01:45:51;;;;;;;;;37.60;34.40;;;;;;;;5270020;28;8961;-71
2022/08/02 01:48:25;;;;;;;;;25.20;25.20;;;;;;;;5266364;28;8939;-71
2022/08/02 01:50:57;;;;;;;;;32.40;30.00;;;;;;;;5248833;28;8859;-71
2022/08/02 01:53:29;;;;;;;;;32.00;31.00;;;;;;;;5235699;28;8794;-71
2022/08/02 01:56:01;;;;;;;;;32.60;31.60;;;;;;;;5253201;28;8920;-71
2022/08/02 01:58:35;;;;;;;;;36.60;33.60;;;;;;;;5236411;28;8794;-71
2022/08/02 02:01:24;;;;;;;;;44.80;38.80;;;;;;;;5270821;28;8797;-73
2022/08/02 02:03:55;;;;;;;;;50.40;42.20;;;;;;;;5235747;28;8826;-73
2022/08/02 02:06:26;;;;;;;;;72.20;61.80;;;;;;;;5252439;28;8813;-73
2022/08/02 02:08:58;;;;;;;;;40.60;35.80;;;;;;;;5253231;28;8932;-73
2022/08/02 02:11:30;;;;;;;;;56.60;47.40;;;;;;;;5235976;28;9529;-73
2022/08/02 02:14:02;;;;;;;;;28.20;28.20;;;;;;;;5235726;28;8796;-73
2022/08/02 02:16:53;;;;;;;;;58.80;49.00;;;;;;;;5252709;28;8805;-72
2022/08/02 02:19:25;;;;;;;;;57.20;47.60;;;;;;;;5237359;28;9524;-71
2022/08/02 02:21:56;;;;;;;;;77.40;71.20;;;;;;;;5252915;28;8818;-71
2022/08/02 02:24:27;;;;;;;;;20.40;20.40;;;;;;;;5235836;28;8917;-71
2022/08/02 02:27:00;;;;;;;;;25.40;25.20;;;;;;;;5252116;28;8829;-71
2022/08/02 02:29:32;;;;;;;;;61.80;49.80;;;;;;;;5248308;28;8871;-71
2022/08/02 02:32:05;;;;;;;;;131.75;112.00;;;;;;;;5252229;28;8797;-71
2022/08/02 02:34:41;;;;;;;;;76.40;69.00;;;;;;;;5235189;28;8818;-71
2022/08/02 02:37:17;;;;;;;;;40.00;35.80;;;;;;;;5268956;28;8796;-71
2022/08/02 02:39:50;;;;;;;;;21.60;21.60;;;;;;;;5218947;28;8797;-71
2022/08/02 02:42:31;;;;;;;;;47.80;40.80;;;;;;;;5235559;28;8874;-71
2022/08/02 02:45:03;;;;;;;;;81.60;75.00;;;;;;;;5239496;28;8936;-71
2022/08/02 02:47:36;;;;;;;;;77.00;69.80;;;;;;;;5272841;28;8815;-71
2022/08/02 02:50:08;;;;;;;;;69.20;54.40;;;;;;;;5254334;28;8787;-71
2022/08/02 02:52:39;;;;;;;;;56.00;46.60;;;;;;;;5256326;28;8775;-72
2022/08/02 02:55:11;;;;;;;;;79.40;74.80;;;;;;;;5238973;28;8840;-71
2022/08/02 02:57:42;;;;;;;;;54.40;44.40;;;;;;;;5251583;28;8805;-71
2022/08/02 03:03:22;;;;;;;;;10.50;10.50;;;;;;;;5234947;28;8774;-71
2022/08/02 03:05:53;;;;;;;;;10.00;10.00;;;;;;;;5251327;28;8825;-71
2022/08/02 03:08:24;;;;;;;;;21.25;21.00;;;;;;;;5252369;28;8790;-71
2022/08/02 03:10:55;;;;;;;;;71.75;58.75;;;;;;;;5270028;28;8794;-72
2022/08/02 03:13:27;;;;;;;;;16.75;16.75;;;;;;;;5234907;28;11541;-71
2022/08/02 03:15:59;;;;;;;;;18.75;18.00;;;;;;;;5251359;28;8809;-72
2022/08/02 03:18:48;;;;;;;;;12.50;12.50;;;;;;;;5269429;28;8781;-72
2022/08/02 03:21:37;;;;;;;;;38.40;34.60;;;;;;;;5253967;28;8904;-72
2022/08/02 03:24:08;;;;;;;;;13.50;13.25;;;;;;;;5261103;28;8806;-72
2022/08/02 03:26:40;;;;;;;;;11.67;11.67;;;;;;;;5272061;28;8829;-72
2022/08/02 03:29:11;;;;;;;;;23.25;20.00;;;;;;;;5270532;28;11120;-72
2022/08/02 03:31:44;;;;;;;;;19.67;19.67;;;;;;;;5254957;28;8790;-71
2022/08/02 03:34:15;;;;;;;;;29.25;29.00;;;;;;;;5271641;28;11617;-72
2022/08/02 03:36:50;;;;;;;;;21.25;21.25;;;;;;;;5272444;28;8783;-72
2022/08/02 03:39:21;;;;;;;;;20.25;20.25;;;;;;;;5255031;28;8787;-72
2022/08/02 03:41:53;;;;;;;;;74.60;62.00;;;;;;;;5270240;28;8846;-72
2022/08/02 03:44:43;;;;;;;;;77.40;70.40;;;;;;;;5274543;28;8783;-72
2022/08/02 03:47:14;;;;;;;;;72.80;62.00;;;;;;;;5250045;28;8826;-74
2022/08/02 03:49:46;;;;;;;;;34.60;32.60;;;;;;;;5217672;28;8786;-72
2022/08/02 03:52:18;;;;;;;;;10.00;10.00;;;;;;;;5250543;28;8806;-73
2022/08/02 03:54:49;;;;;;;;;15.00;15.00;;;;;;;;5250254;28;8789;-73
2022/08/02 03:57:20;;;;;;;;;14.50;14.50;;;;;;;;5250195;28;8805;-73
2022/08/02 03:59:51;;;;;;;;;18.00;17.50;;;;;;;;5239458;28;8805;-72
2022/08/02 04:02:22;;;;;;;;;13.75;13.75;;;;;;;;5248517;28;8920;-72
2022/08/02 04:04:54;;;;;;;;;13.25;13.25;;;;;;;;5231452;28;8801;-73
2022/08/02 04:07:25;;;;;;;;;10.50;10.50;;;;;;;;5242794;28;8945;-74
2022/08/02 04:09:56;;;;;;;;;11.50;11.50;;;;;;;;5225722;28;8832;-74
2022/08/02 04:12:45;;;;;;;;;12.25;12.25;;;;;;;;5247997;28;8806;-74
2022/08/02 04:15:17;;;;;;;;;13.25;13.25;;;;;;;;5220666;28;8855;-74
2022/08/02 04:18:07;;;;;;;;;13.00;13.00;;;;;;;;5254466;28;8833;-75
2022/08/02 04:20:39;;;;;;;;;8.00;8.00;;;;;;;;5244014;28;8875;-74
2022/08/02 04:23:11;;;;;;;;;39.80;34.80;;;;;;;;5247764;28;8829;-75
2022/08/02 04:25:43;;;;;;;;;14.50;14.50;;;;;;;;5273377;28;8834;-75
2022/08/02 04:28:15;;;;;;;;;13.75;13.75;;;;;;;;5257822;28;8903;-75
2022/08/02 04:30:48;;;;;;;;;14.75;14.75;;;;;;;;5238716;28;8809;-75
2022/08/02 04:33:19;;;;;;;;;12.25;12.25;;;;;;;;5247964;28;8794;-75
2022/08/02 04:36:09;;;;;;;;;12.75;12.25;;;;;;;;5250387;28;8812;-74
2022/08/02 04:38:59;;;;;;;;;16.75;16.75;;;;;;;;5250669;28;9522;-77
2022/08/02 04:41:41;;;;;;;;;14.67;14.33;;;;;;;;5231746;28;8838;-75
2022/08/02 04:44:30;;;;;;;;;15.00;15.00;;;;;;;;5273247;28;8809;-72
2022/08/02 04:47:02;;;;;;;;;14.75;14.25;;;;;;;;5237625;28;8821;-74
2022/08/02 04:49:33;;;;;;;;;15.75;15.75;;;;;;;;5255222;28;9596;-75
2022/08/02 04:52:04;;;;;;;;;19.50;19.25;;;;;;;;5232504;28;8812;-75
2022/08/02 04:54:34;;;;;;;;;16.33;16.33;;;;;;;;5233217;28;8805;-75
2022/08/02 04:57:53;;;;;;;;;22.00;22.00;;;;;;;;5232641;28;9554;-75
2022/08/02 04:59:56;;;;;;;;;20.25;20.25;;;;;;;;5249404;28;8972;-75
2022/08/02 05:02:27;;;;;;;;;16.33;15.67;;;;;;;;5232631;28;8928;-75
2022/08/02 05:04:58;;;;;;;;;13.75;13.50;;;;;;;;5267316;28;11515;-75
2022/08/02 05:07:29;;;;;;;;;23.33;23.33;;;;;;;;5232719;28;8927;-76
2022/08/02 05:10:00;;;;;;;;;21.50;21.50;;;;;;;;5216299;28;9100;-75
2022/08/02 05:12:31;;;;;;;;;19.33;19.33;;;;;;;;5249473;28;8808;-75
2022/08/02 05:15:02;;;;;;;;;22.25;22.25;;;;;;;;5232679;28;8798;-76
2022/08/02 05:17:34;;;;;;;;;21.00;21.00;;;;;;;;5249512;28;8797;-75
2022/08/02 05:20:05;;;;;;;;;23.00;23.00;;;;;;;;5249207;28;8914;-76
2022/08/02 05:22:36;;;;;;;;;25.50;25.50;;;;;;;;5267313;28;9953;-76
2022/08/02 05:25:07;;;;;;;;;25.67;25.00;;;;;;;;5216112;28;8802;-76
2022/08/02 05:27:38;;;;;;;;;33.40;31.80;;;;;;;;5234338;28;8829;-76
2022/08/02 05:30:09;;;;;;;;;48.60;41.20;;;;;;;;5253572;28;8801;-76
2022/08/02 05:32:44;;;;;;;;;30.25;28.75;;;;;;;;5253302;28;8854;-76
2022/08/02 05:35:20;;;;;;;;;17.75;17.75;;;;;;;;5237048;28;8790;-76
2022/08/02 05:37:51;;;;;;;;;24.25;24.25;;;;;;;;5253512;28;8820;-76
2022/08/02 05:40:22;;;;;;;;;24.00;24.00;;;;;;;;5236816;28;8782;-76
2022/08/02 05:42:54;;;;;;;;;23.00;23.00;;;;;;;;5236752;28;8790;-76
2022/08/02 05:45:25;;;;;;;;;24.25;22.50;;;;;;;;5270237;28;8789;-76
2022/08/02 05:47:56;;;;;;;;;19.75;19.25;;;;;;;;5253139;28;8778;-76
2022/08/02 05:50:27;;;;;;;;;24.50;23.25;;;;;;;;5236279;28;8948;-76
2022/08/02 05:53:23;;;;;;;;;23.75;23.75;;;;;;;;5277944;28;8806;-76
2022/08/02 05:56:02;;;;;;;;;30.00;29.75;;;;;;;;5264076;28;8797;-76
2022/08/02 05:58:59;;;;;;;;;22.25;22.25;;;;;;;;5241872;28;8886;-76
2022/08/02 06:01:33;;;;;;;;;24.25;24.25;;;;;;;;5232661;28;8793;-75
2022/08/02 06:04:05;;;;;;;;;22.50;22.50;;;;;;;;5236469;28;8778;-76
2022/08/02 06:06:37;;;;;;;;;20.75;20.50;;;;;;;;5235809;28;8829;-77
2022/08/02 06:09:27;;;;;;;;;20.25;20.25;;;;;;;;5238639;28;8796;-76
2022/08/02 06:11:59;;;;;;;;;27.75;27.75;;;;;;;;5252692;28;8774;-76
2022/08/02 06:14:32;;;;;;;;;29.50;29.00;;;;;;;;5252862;28;9519;-76
2022/08/02 06:17:23;;;;;;;;;20.75;18.75;;;;;;;;5238449;28;8924;-76
2022/08/02 06:20:13;;;;;;;;;47.00;40.40;;;;;;;;5270762;28;8870;-77
2022/08/02 06:22:44;;;;;;;;;26.25;26.25;;;;;;;;5235935;28;8847;-77
2022/08/02 06:25:18;;;;;;;;;42.20;36.40;;;;;;;;5252857;28;8786;-77
2022/08/02 06:27:49;;;;;;;;;59.20;48.80;;;;;;;;5270446;28;8890;-76
2022/08/02 06:30:21;;;;;;;;;51.00;43.00;;;;;;;;5235915;28;8773;-76
2022/08/02 06:32:52;;;;;;;;;49.60;42.40;;;;;;;;5252221;28;9516;-77
2022/08/02 06:35:39;;;;;;;;;26.75;26.25;;;;;;;;5252357;28;8786;-77
2022/08/02 06:38:13;;;;;;;;;24.25;24.00;;;;;;;;5235456;28;8777;-76
2022/08/02 06:41:05;;;;;;;;;28.25;26.25;;;;;;;;5255280;28;9574;-77
2022/08/02 06:43:48;;;;;;;;;21.25;21.25;;;;;;;;5252161;28;8790;-76
2022/08/02 06:46:19;;;;;;;;;22.00;22.00;;;;;;;;5235528;28;8813;-77
2022/08/02 06:48:51;;;;;;;;;25.25;25.25;;;;;;;;5251904;28;8835;-77
2022/08/02 06:51:22;;;;;;;;;22.25;21.25;;;;;;;;5235489;28;9560;-76
2022/08/02 06:53:53;;;;;;;;;26.00;25.25;;;;;;;;5235439;28;8778;-77
2022/08/02 06:56:24;;;;;;;;;23.50;23.50;;;;;;;;5269981;28;8842;-77
2022/08/02 06:58:55;;;;;;;;;22.00;22.00;;;;;;;;5235530;28;9503;-77
2022/08/02 07:01:26;;;;;;;;;33.25;30.75;;;;;;;;5234949;28;8904;-77
2022/08/02 07:03:57;;;;;;;;;35.50;32.50;;;;;;;;5251678;28;8833;-77
2022/08/02 07:06:28;;;;;;;;;94.00;86.50;;;;;;;;5234927;28;8825;-77
2022/08/02 07:08:59;;;;;;;;;54.80;44.80;;;;;;;;5235044;28;11574;-76
2022/08/02 07:11:30;;;;;;;;;48.60;41.60;;;;;;;;5251822;28;8797;-77
2022/08/02 07:14:19;;;;;;;;;29.00;28.75;;;;;;;;5270020;28;8794;-77
2022/08/02 07:16:52;;;;;;;;;26.25;26.25;;;;;;;;5235370;28;8810;-77
2022/08/02 07:19:41;;;;;;;;;36.40;33.00;;;;;;;;5254311;28;8762;-76
2022/08/02 07:22:13;;;;;;;;;28.75;28.75;;;;;;;;5259389;28;8806;-77
2022/08/02 07:25:02;;;;;;;;;25.50;24.75;;;;;;;;5247075;28;8858;-76
2022/08/02 07:27:34;;;;;;;;;25.00;24.00;;;;;;;;5280880;28;8858;-77
2022/08/02 07:30:05;;;;;;;;;24.00;24.00;;;;;;;;5252971;28;8805;-77
2022/08/02 07:32:37;;;;;;;;;19.25;19.25;;;;;;;;5236663;28;9823;-76
2022/08/02 07:35:08;;;;;;;;;24.50;24.50;;;;;;;;5236129;28;8805;-77
2022/08/02 07:37:58;;;;;;;;;29.50;28.50;;;;;;;;5237008;28;8797;-76
2022/08/02 07:40:29;;;;;;;;;26.00;26.00;;;;;;;;5251082;28;8762;-77
2022/08/02 07:43:01;;;;;;;;;26.00;26.00;;;;;;;;5251090;28;8884;-76
2022/08/02 07:45:32;;;;;;;;;25.00;25.00;;;;;;;;5250714;28;8785;-76
2022/08/02 07:48:04;;;;;;;;;24.75;24.25;;;;;;;;5250572;28;8801;-77
2022/08/02 07:50:35;;;;;;;;;21.00;21.00;;;;;;;;5233396;28;8797;-77
2022/08/02 07:53:24;;;;;;;;;21.75;21.50;;;;;;;;5250978;28;8808;-77
2022/08/02 07:55:55;;;;;;;;;25.25;25.25;;;;;;;;5250530;28;8789;-77
2022/08/02 07:58:26;;;;;;;;;27.75;27.75;;;;;;;;5234210;28;8805;-77
2022/08/02 08:00:58;;;;;;;;;27.00;26.50;;;;;;;;5233848;28;8794;-77
2022/08/02 08:03:28;;;;;;;;;28.33;28.33;;;;;;;;5234168;28;8793;-77
2022/08/02 08:06:18;;;;;;;;;28.25;28.00;;;;;;;;5250823;28;11607;-77
2022/08/02 08:08:49;;;;;;;;;26.67;26.67;;;;;;;;5260738;28;8785;-77
2022/08/02 08:11:20;;;;;;;;;26.00;26.00;;;;;;;;5250939;28;9703;-77
2022/08/02 08:14:09;;;;;;;;;33.00;31.00;;;;;;;;5256215;28;8905;-77
2022/08/02 08:16:40;;;;;;;;;31.33;29.00;;;;;;;;5276012;28;8825;-77
2022/08/02 08:19:11;;;;;;;;;24.33;24.33;;;;;;;;5250165;28;9422;-77
2022/08/02 08:21:42;;;;;;;;;28.75;28.75;;;;;;;;5249507;28;10383;-77
2022/08/02 08:24:13;;;;;;;;;23.75;23.75;;;;;;;;5233920;28;8794;-77
2022/08/02 08:26:44;;;;;;;;;29.50;28.50;;;;;;;;5249708;28;8829;-77
2022/08/02 08:29:15;;;;;;;;;25.00;24.67;;;;;;;;5216634;28;8932;-77
2022/08/02 08:31:46;;;;;;;;;23.25;22.75;;;;;;;;5249825;28;10444;-77
2022/08/02 08:34:17;;;;;;;;;25.25;25.25;;;;;;;;5232925;28;8817;-77
2022/08/02 08:36:49;;;;;;;;;30.00;29.00;;;;;;;;5249668;28;8794;-76
2022/08/02 08:39:19;;;;;;;;;24.00;23.50;;;;;;;;5233065;28;8814;-77
2022/08/02 08:41:50;;;;;;;;;27.67;27.67;;;;;;;;5232774;28;8789;-77
2022/08/02 08:44:21;;;;;;;;;18.00;17.50;;;;;;;;5249456;28;9572;-77
2022/08/02 08:47:11;;;;;;;;;28.25;27.25;;;;;;;;5267628;28;8848;-77
2022/08/02 08:49:44;;;;;;;;;23.25;22.75;;;;;;;;5233100;28;8786;-77
2022/08/02 08:52:15;;;;;;;;;23.50;23.50;;;;;;;;5232611;28;8798;-76
2022/08/02 08:54:47;;;;;;;;;27.25;27.25;;;;;;;;5249675;28;8805;-76
2022/08/02 08:57:19;;;;;;;;;30.00;29.00;;;;;;;;5232795;28;8951;-77
2022/08/02 08:59:50;;;;;;;;;28.50;28.00;;;;;;;;5232856;28;8808;-77
2022/08/02 09:02:41;;;;;;;;;26.50;26.50;;;;;;;;5252051;28;8790;-77
2022/08/02 09:05:13;;;;;;;;;26.75;26.50;;;;;;;;5267675;28;8798;-77
2022/08/02 09:07:48;;;;;;;;;30.50;29.75;;;;;;;;5232629;28;9022;-77
2022/08/02 09:10:32;;;;;;;;;31.00;29.25;;;;;;;;5232495;28;8817;-76
2022/08/02 09:13:09;;;;;;;;;24.50;24.50;;;;;;;;5232474;28;8856;-77
2022/08/02 09:15:41;;;;;;;;;29.25;29.00;;;;;;;;5249298;28;8840;-77
2022/08/02 09:18:12;;;;;;;;;27.25;27.25;;;;;;;;5249055;28;8802;-78
2022/08/02 09:20:51;;;;;;;;;30.75;29.00;;;;;;;;5232612;28;8818;-77
2022/08/02 09:23:22;;;;;;;;;30.00;29.25;;;;;;;;5249316;28;8825;-77
2022/08/02 09:25:57;;;;;;;;;30.50;29.50;;;;;;;;5267037;28;8895;-78
2022/08/02 09:28:29;;;;;;;;;26.00;26.00;;;;;;;;5272758;28;8805;-77
2022/08/02 09:31:13;;;;;;;;;35.80;33.00;;;;;;;;5262472;28;8794;-77
2022/08/02 09:33:49;;;;;;;;;26.50;26.25;;;;;;;;5239406;28;8805;-77
2022/08/02 09:36:20;;;;;;;;;28.75;28.25;;;;;;;;5249096;28;8790;-77
2022/08/02 09:38:54;;;;;;;;;28.50;28.50;;;;;;;;5232420;28;9511;-77
2022/08/02 09:41:27;;;;;;;;;29.50;28.50;;;;;;;;5215727;28;8786;-77
2022/08/02 09:44:16;;;;;;;;;27.50;27.50;;;;;;;;5266930;28;8871;-77
2022/08/02 09:46:47;;;;;;;;;28.00;27.75;;;;;;;;5248782;28;8818;-78
2022/08/02 09:49:18;;;;;;;;;33.25;31.25;;;;;;;;5232383;28;9726;-77
2022/08/02 09:51:50;;;;;;;;;27.75;27.50;;;;;;;;5232407;28;8785;-77
2022/08/02 09:54:27;;;;;;;;;27.50;27.50;;;;;;;;5232262;28;8802;-77
2022/08/02 09:56:59;;;;;;;;;24.25;24.25;;;;;;;;5231988;28;8813;-77
2022/08/02 09:59:30;;;;;;;;;25.25;25.25;;;;;;;;5248695;28;8789;-77
2022/08/02 10:02:08;;;;;;;;;27.25;27.25;;;;;;;;5248982;28;9508;-77
2022/08/02 10:04:39;;;;;;;;;28.00;28.00;;;;;;;;5232283;28;8859;-77
2022/08/02 10:07:11;;;;;;;;;26.25;25.25;;;;;;;;5215402;28;8845;-77
2022/08/02 10:09:44;;;;;;;;;24.00;23.75;;;;;;;;5248875;28;8786;-77
2022/08/02 10:12:15;;;;;;;;;24.25;24.25;;;;;;;;5232011;28;9539;-77
2022/08/02 10:14:48;;;;;;;;;22.75;22.50;;;;;;;;5235556;28;9508;-77
2022/08/02 10:17:19;;;;;;;;;24.75;24.75;;;;;;;;5235792;28;8790;-77
2022/08/02 10:19:50;;;;;;;;;25.25;25.00;;;;;;;;5235854;28;8797;-77
2022/08/02 10:22:21;;;;;;;;;23.33;22.33;;;;;;;;5252385;28;8860;-77
2022/08/02 10:24:52;;;;;;;;;24.00;24.00;;;;;;;;5235764;28;8794;-77
2022/08/02 10:27:24;;;;;;;;;20.50;20.50;;;;;;;;5252072;28;8825;-77
2022/08/02 10:30:13;;;;;;;;;23.25;23.25;;;;;;;;5270005;28;8920;-77
2022/08/02 10:32:45;;;;;;;;;23.75;23.75;;;;;;;;5235558;28;8770;-77
2022/08/02 10:35:19;;;;;;;;;30.50;29.25;;;;;;;;5270489;28;8862;-77
2022/08/02 10:37:59;;;;;;;;;24.75;24.75;;;;;;;;5235727;28;8802;-77
2022/08/02 10:40:47;;;;;;;;;21.00;21.00;;;;;;;;5252175;28;8920;-77
2022/08/02 10:43:30;;;;;;;;;22.25;22.25;;;;;;;;5252101;28;8805;-77
2022/08/02 10:46:20;;;;;;;;;21.00;21.00;;;;;;;;5218942;28;8821;-77
2022/08/02 10:49:08;;;;;;;;;20.00;19.75;;;;;;;;5269931;28;8789;-77
2022/08/02 10:52:08;;;;;;;;;28.00;27.75;;;;;;;;5252558;28;9552;-76
2022/08/02 10:54:40;;;;;;;;;22.25;22.25;;;;;;;;5222471;28;8790;-77
2022/08/02 10:57:14;;;;;;;;;25.25;25.25;;;;;;;;5218529;28;8797;-76
2022/08/02 10:59:46;;;;;;;;;18.25;18.25;;;;;;;;5251892;28;8793;-77
2022/08/02 11:02:34;;;;;;;;;23.50;23.50;;;;;;;;5251917;28;8794;-77
2022/08/02 11:05:06;;;;;;;;;20.50;20.50;;;;;;;;5234943;28;8813;-77
2022/08/02 11:07:42;;;;;;;;;20.25;20.25;;;;;;;;5251488;28;8821;-77
2022/08/02 11:10:25;;;;;;;;;22.75;22.75;;;;;;;;5269697;28;8800;-77
2022/08/02 11:12:59;;;;;;;;;23.25;23.25;;;;;;;;5269763;28;8782;-77
2022/08/02 11:15:45;;;;;;;;;21.00;20.50;;;;;;;;5269444;28;8804;-76
2022/08/02 11:18:16;;;;;;;;;23.75;23.75;;;;;;;;5234674;28;8801;-76
2022/08/02 11:21:07;;;;;;;;;19.50;19.50;;;;;;;;5251847;28;8793;-76
2022/08/02 11:23:39;;;;;;;;;21.00;21.00;;;;;;;;5230089;28;8822;-77
2022/08/02 11:26:28;;;;;;;;;22.50;22.50;;;;;;;;5262808;28;8823;-77
2022/08/02 11:29:00;;;;;;;;;20.75;20.75;;;;;;;;5247613;28;8913;-79
2022/08/02 11:31:42;;;;;;;;;22.75;22.50;;;;;;;;5214283;28;8807;-77
2022/08/02 11:34:14;;;;;;;;;22.00;22.00;;;;;;;;5213790;28;8922;-79
2022/08/02 11:36:47;;;;;;;;;16.50;16.50;;;;;;;;5230625;28;8803;-76
2022/08/02 11:39:19;;;;;;;;;20.25;19.50;;;;;;;;5246999;28;8872;-76
2022/08/02 11:41:55;;;;;;;;;19.00;19.00;;;;;;;;5230307;28;9576;-76
2022/08/02 11:44:27;;;;;;;;;24.25;24.25;;;;;;;;5247146;28;8787;-76
2022/08/02 11:47:01;;;;;;;;;18.50;18.50;;;;;;;;5230236;28;8885;-76
2022/08/02 11:49:32;;;;;;;;;22.00;22.00;;;;;;;;5246535;28;8783;-76
2022/08/02 11:52:05;;;;;;;;;19.50;19.50;;;;;;;;5213605;28;8778;-76
2022/08/02 11:54:39;;;;;;;;;22.25;22.25;;;;;;;;5246586;28;8787;-77
2022/08/02 11:57:17;;;;;;;;;22.50;22.50;;;;;;;;5229913;28;8817;-77
2022/08/02 11:59:49;;;;;;;;;22.50;22.50;;;;;;;;5229946;28;8830;-77
2022/08/02 12:02:22;;;;;;;;;20.50;20.50;;;;;;;;5229876;28;8767;-77
2022/08/02 12:04:53;;;;;;;;;20.75;20.75;;;;;;;;5246433;28;8780;-77
2022/08/02 12:07:28;;;;;;;;;20.75;20.75;;;;;;;;5213226;28;8807;-77
2022/08/02 12:09:59;;;;;;;;;20.00;20.00;;;;;;;;5230005;28;8864;-77
2022/08/02 12:12:30;;;;;;;;;21.75;21.50;;;;;;;;5247477;28;9501;-76
2022/08/02 12:15:29;;;;;;;;;23.50;23.50;;;;;;;;5247392;28;8803;-77
2022/08/02 12:20:50;;;;;;;;;25.00;25.00;;;;;;;;5247278;28;8817;-76
2022/08/02 12:23:21;;;;;;;;;20.67;20.67;;;;;;;;5229176;28;9529;-76
2022/08/02 12:26:12;;;;;;;;;21.00;21.00;;;;;;;;5246088;28;8779;-76
2022/08/02 12:28:43;;;;;;;;;20.50;20.50;;;;;;;;5245405;28;8775;-77
2022/08/02 12:31:14;;;;;;;;;17.00;17.00;;;;;;;;5246980;28;8795;-76
2022/08/02 12:33:46;;;;;;;;;20.00;20.00;;;;;;;;5229178;28;8815;-76
2022/08/02 12:36:18;;;;;;;;;18.00;18.00;;;;;;;;5228724;28;8787;-76
2022/08/02 12:38:55;;;;;;;;;20.00;20.00;;;;;;;;5229345;28;8814;-77
2022/08/02 12:41:27;;;;;;;;;19.00;19.00;;;;;;;;5245689;28;8771;-77
2022/08/02 12:43:59;;;;;;;;;23.00;23.00;;;;;;;;5247090;28;8786;-77
2022/08/02 12:46:57;;;;;;;;;20.75;20.75;;;;;;;;5247003;28;8819;-77
2022/08/02 12:49:28;;;;;;;;;19.25;19.25;;;;;;;;5228996;28;8789;-77
2022/08/02 12:51:59;;;;;;;;;20.50;20.50;;;;;;;;5245481;28;8779;-77
2022/08/02 12:54:37;;;;;;;;;22.50;22.50;;;;;;;;5228792;28;9508;-78
2022/08/02 12:57:10;;;;;;;;;23.25;23.00;;;;;;;;5228998;28;8871;-78
2022/08/02 12:59:43;;;;;;;;;21.25;21.25;;;;;;;;5245312;28;8783;-78
2022/08/02 13:02:15;;;;;;;;;21.25;21.25;;;;;;;;5228543;28;8782;-78
2022/08/02 13:04:46;;;;;;;;;21.50;21.50;;;;;;;;5245244;28;8991;-75
2022/08/02 13:07:18;;;;;;;;;21.00;21.00;;;;;;;;5245218;28;8803;-77
2022/08/02 13:09:49;;;;;;;;;18.50;18.50;;;;;;;;5245596;28;8896;-77
2022/08/02 13:12:38;;;;;;;;;21.25;21.25;;;;;;;;5230946;28;8877;-77
2022/08/02 13:15:28;;;;;;;;;19.25;19.25;;;;;;;;5247863;28;8799;-77
2022/08/02 13:18:00;;;;;;;;;21.75;21.75;;;;;;;;5229608;28;8811;-78
2022/08/02 13:20:31;;;;;;;;;21.25;21.00;;;;;;;;5246426;28;8795;-75
2022/08/02 13:23:01;;;;;;;;;20.33;20.33;;;;;;;;5211842;28;8823;-75
2022/08/02 13:25:34;;;;;;;;;22.00;22.00;;;;;;;;5245000;28;11247;-75
2022/08/02 13:28:05;;;;;;;;;24.25;24.25;;;;;;;;5227897;28;8813;-76
2022/08/02 13:30:37;;;;;;;;;24.00;24.00;;;;;;;;5248992;28;8795;-79
2022/08/02 13:33:08;;;;;;;;;23.75;23.50;;;;;;;;5245995;28;8932;-78
2022/08/02 13:35:39;;;;;;;;;21.75;21.75;;;;;;;;5260746;28;8934;-74
2022/08/02 13:38:10;;;;;;;;;22.75;22.75;;;;;;;;5245125;28;8786;-78
2022/08/02 13:43:31;;;;;;;;;21.00;21.00;;;;;;;;5263868;28;8765;-78
2022/08/02 13:46:20;;;;;;;;;22.25;22.25;;;;;;;;5266878;28;8852;-77
2022/08/02 13:48:51;;;;;;;;;22.25;22.25;;;;;;;;5255253;28;8838;-78
2022/08/02 13:51:22;;;;;;;;;18.50;18.50;;;;;;;;5249173;28;8787;-78
2022/08/02 13:53:53;;;;;;;;;19.00;19.00;;;;;;;;5263335;28;8800;-74
2022/08/02 13:56:24;;;;;;;;;22.25;22.25;;;;;;;;5252598;28;8801;-75
2022/08/02 13:58:57;;;;;;;;;22.00;22.00;;;;;;;;5252403;28;8780;-74
2022/08/02 14:01:28;;;;;;;;;22.00;22.00;;;;;;;;5248287;28;8803;-75
2022/08/02 14:03:59;;;;;;;;;23.00;23.00;;;;;;;;5252470;28;8800;-75
2022/08/02 14:06:30;;;;;;;;;22.33;22.33;;;;;;;;5235670;28;8793;-75
2022/08/02 14:09:02;;;;;;;;;22.25;22.25;;;;;;;;5269077;28;9251;-74
2022/08/02 14:11:32;;;;;;;;;23.25;23.25;;;;;;;;5269189;28;8765;-74
2022/08/02 14:14:03;;;;;;;;;25.67;25.67;;;;;;;;5248202;28;8805;-76
2022/08/02 14:16:34;;;;;;;;;24.00;24.00;;;;;;;;5235128;28;8820;-76
2022/08/02 14:19:05;;;;;;;;;25.25;24.00;;;;;;;;5252301;28;9947;-76
2022/08/02 14:21:54;;;;;;;;;22.75;22.75;;;;;;;;5258490;28;8834;-76
2022/08/02 14:24:25;;;;;;;;;28.33;27.67;;;;;;;;5238559;28;8809;-75
2022/08/02 14:26:56;;;;;;;;;23.00;23.00;;;;;;;;5252016;28;10679;-77
2022/08/02 14:29:27;;;;;;;;;16.25;16.25;;;;;;;;5252733;28;8789;-77
2022/08/02 14:31:58;;;;;;;;;21.67;21.67;;;;;;;;5235326;28;9010;-79
2022/08/02 14:34:29;;;;;;;;;23.67;23.67;;;;;;;;5236957;28;9552;-76
2022/08/02 14:37:18;;;;;;;;;24.00;24.00;;;;;;;;5279963;28;11524;-77
2022/08/02 14:39:49;;;;;;;;;19.50;19.50;;;;;;;;5264678;28;8853;-76
2022/08/02 14:42:20;;;;;;;;;21.25;21.00;;;;;;;;5227758;28;8813;-76
2022/08/02 14:44:51;;;;;;;;;25.50;25.50;;;;;;;;5257456;28;8794;-76
2022/08/02 14:47:22;;;;;;;;;19.00;19.00;;;;;;;;5238163;28;9003;-77
2022/08/02 14:49:53;;;;;;;;;25.00;25.00;;;;;;;;5225172;28;8810;-77
2022/08/02 14:52:24;;;;;;;;;25.50;25.50;;;;;;;;5261345;28;8803;-74
2022/08/02 14:54:55;;;;;;;;;27.25;26.75;;;;;;;;5272554;28;8833;-74
2022/08/02 14:57:26;;;;;;;;;30.00;28.00;;;;;;;;5253644;28;8807;-75
2022/08/02 14:59:59;;;;;;;;;29.00;28.00;;;;;;;;5270825;28;9559;-75
2022/08/02 15:02:30;;;;;;;;;25.00;25.00;;;;;;;;5271035;28;9525;-75
2022/08/02 15:05:01;;;;;;;;;27.00;27.00;;;;;;;;5241305;28;8833;-74
2022/08/02 15:07:34;;;;;;;;;21.50;20.75;;;;;;;;5270704;28;8864;-76
2022/08/02 15:10:05;;;;;;;;;26.25;26.25;;;;;;;;5237541;28;8810;-76
2022/08/02 15:12:54;;;;;;;;;38.00;33.00;;;;;;;;5250619;28;8847;-76
2022/08/02 15:15:25;;;;;;;;;24.00;24.00;;;;;;;;5231234;28;8837;-77
2022/08/02 15:17:56;;;;;;;;;33.25;30.50;;;;;;;;5267745;28;8798;-77
2022/08/02 15:20:27;;;;;;;;;31.25;29.25;;;;;;;;5233210;28;8817;-76
2022/08/02 15:22:59;;;;;;;;;39.75;34.50;;;;;;;;5228502;28;8851;-76